sensor_id;sensor_type;location;lat;lon;timestamp;P1;durP1;ratioP1;P2;durP2;ratioP2
43337;SDS011;28933;52.492;13.434;2022-09-09T00:00:48;7.03;;;6.20;;
43337;SDS011;28933;52.492;13.434;2022-09-09T00:03:21;8.95;;;7.22;;
43337;SDS011;28933;52.492;13.434;2022-09-09T00:08:35;7.10;;;6.40;;
43337;SDS011;28933;52.492;13.434;2022-09-09T00:11:13;9.20;;;6.40;;
43337;SDS011;28933;52.492;13.434;2022-09-09T00:13:52;7.38;;;6.25;;
43337;SDS011;28933;52.492;13.434;2022-09-09T00:16:27;7.28;;;6.07;;
43337;SDS011;28933;52.492;13.434;2022-09-09T00:21:35;7.60;;;6.63;;
43337;SDS011;28933;52.492;13.434;2022-09-09T00:25:08;8.05;;;6.88;;
43337;SDS011;28933;52.492;13.434;2022-09-09T00:27:06;7.35;;;5.93;;
43337;SDS011;28933;52.492;13.434;2022-09-09T00:29:45;11.30;;;6.93;;
43337;SDS011;28933;52.492;13.434;2022-09-09T00:32:19;7.82;;;5.82;;
43337;SDS011;28933;52.492;13.434;2022-09-09T00:34:52;7.07;;;5.97;;
43337;SDS011;28933;52.492;13.434;2022-09-09T00:37:22;7.85;;;6.50;;
43337;SDS011;28933;52.492;13.434;2022-09-09T00:39:51;7.25;;;6.10;;
43337;SDS011;28933;52.492;13.434;2022-09-09T00:42:25;9.55;;;6.25;;
43337;SDS011;28933;52.492;13.434;2022-09-09T00:47:59;7.25;;;5.93;;
43337;SDS011;28933;52.492;13.434;2022-09-09T00:58:40;7.63;;;6.00;;
43337;SDS011;28933;52.492;13.434;2022-09-09T01:01:15;7.50;;;6.65;;
43337;SDS011;28933;52.492;13.434;2022-09-09T01:03:54;7.13;;;6.35;;
43337;SDS011;28933;52.492;13.434;2022-09-09T01:06:31;8.23;;;6.47;;
43337;SDS011;28933;52.492;13.434;2022-09-09T01:12:07;8.43;;;6.28;;
43337;SDS011;28933;52.492;13.434;2022-09-09T01:17:17;9.07;;;6.07;;
43337;SDS011;28933;52.492;13.434;2022-09-09T01:28:12;7.30;;;6.13;;
43337;SDS011;28933;52.492;13.434;2022-09-09T01:30:42;8.30;;;7.22;;
43337;SDS011;28933;52.492;13.434;2022-09-09T01:33:10;6.95;;;5.82;;
43337;SDS011;28933;52.492;13.434;2022-09-09T01:38:21;7.45;;;6.10;;
43337;SDS011;28933;52.492;13.434;2022-09-09T01:40:48;7.68;;;6.10;;
43337;SDS011;28933;52.492;13.434;2022-09-09T01:43:17;6.38;;;5.55;;
43337;SDS011;28933;52.492;13.434;2022-09-09T01:45:46;6.97;;;5.43;;
43337;SDS011;28933;52.492;13.434;2022-09-09T01:48:14;7.40;;;6.07;;
43337;SDS011;28933;52.492;13.434;2022-09-09T01:50:40;6.35;;;5.57;;
43337;SDS011;28933;52.492;13.434;2022-09-09T01:53:06;6.85;;;5.72;;
43337;SDS011;28933;52.492;13.434;2022-09-09T01:55:33;7.25;;;6.00;;
43337;SDS011;28933;52.492;13.434;2022-09-09T02:03:41;6.68;;;5.70;;
43337;SDS011;28933;52.492;13.434;2022-09-09T02:06:29;7.40;;;5.68;;
43337;SDS011;28933;52.492;13.434;2022-09-09T02:08:59;7.45;;;5.55;;
43337;SDS011;28933;52.492;13.434;2022-09-09T02:11:28;7.78;;;6.40;;
43337;SDS011;28933;52.492;13.434;2022-09-09T02:14:00;6.05;;;5.28;;
43337;SDS011;28933;52.492;13.434;2022-09-09T02:16:34;7.00;;;5.80;;
43337;SDS011;28933;52.492;13.434;2022-09-09T02:19:12;8.10;;;6.30;;
43337;SDS011;28933;52.492;13.434;2022-09-09T02:21:52;6.63;;;5.90;;
43337;SDS011;28933;52.492;13.434;2022-09-09T02:24:19;8.05;;;6.70;;
43337;SDS011;28933;52.492;13.434;2022-09-09T02:26:46;8.10;;;6.55;;
43337;SDS011;28933;52.492;13.434;2022-09-09T02:29:16;8.70;;;5.68;;
43337;SDS011;28933;52.492;13.434;2022-09-09T02:31:45;7.80;;;6.57;;
43337;SDS011;28933;52.492;13.434;2022-09-09T02:34:12;8.15;;;6.38;;
43337;SDS011;28933;52.492;13.434;2022-09-09T02:36:41;7.80;;;5.82;;
43337;SDS011;28933;52.492;13.434;2022-09-09T02:39:09;8.30;;;6.15;;
43337;SDS011;28933;52.492;13.434;2022-09-09T02:41:37;8.32;;;6.82;;
43337;SDS011;28933;52.492;13.434;2022-09-09T02:44:13;7.57;;;5.93;;
43337;SDS011;28933;52.492;13.434;2022-09-09T02:49:40;6.95;;;5.75;;
43337;SDS011;28933;52.492;13.434;2022-09-09T02:52:26;7.43;;;5.88;;
43337;SDS011;28933;52.492;13.434;2022-09-09T02:54:59;7.93;;;6.63;;
43337;SDS011;28933;52.492;13.434;2022-09-09T02:57:35;6.28;;;5.63;;
43337;SDS011;28933;52.492;13.434;2022-09-09T03:00:03;7.43;;;6.00;;
43337;SDS011;28933;52.492;13.434;2022-09-09T03:02:30;7.28;;;6.03;;
43337;SDS011;28933;52.492;13.434;2022-09-09T03:04:55;7.28;;;5.75;;
43337;SDS011;28933;52.492;13.434;2022-09-09T03:07:21;7.68;;;6.38;;
43337;SDS011;28933;52.492;13.434;2022-09-09T03:09:46;7.30;;;6.53;;
43337;SDS011;28933;52.492;13.434;2022-09-09T03:12:12;8.35;;;6.53;;
43337;SDS011;28933;52.492;13.434;2022-09-09T03:14:38;8.07;;;5.72;;
43337;SDS011;28933;52.492;13.434;2022-09-09T03:17:04;10.07;;;5.80;;
43337;SDS011;28933;52.492;13.434;2022-09-09T03:19:30;9.82;;;5.80;;
43337;SDS011;28933;52.492;13.434;2022-09-09T03:21:57;6.55;;;5.53;;
43337;SDS011;28933;52.492;13.434;2022-09-09T03:24:23;7.75;;;5.97;;
43337;SDS011;28933;52.492;13.434;2022-09-09T03:26:49;7.28;;;5.75;;
43337;SDS011;28933;52.492;13.434;2022-09-09T03:29:15;8.48;;;5.75;;
43337;SDS011;28933;52.492;13.434;2022-09-09T03:31:42;7.85;;;6.50;;
43337;SDS011;28933;52.492;13.434;2022-09-09T03:34:08;8.07;;;5.82;;
43337;SDS011;28933;52.492;13.434;2022-09-09T03:36:33;9.05;;;6.32;;
43337;SDS011;28933;52.492;13.434;2022-09-09T03:38:59;7.45;;;5.68;;
43337;SDS011;28933;52.492;13.434;2022-09-09T03:41:25;6.88;;;5.40;;
43337;SDS011;28933;52.492;13.434;2022-09-09T03:43:51;7.38;;;6.00;;
43337;SDS011;28933;52.492;13.434;2022-09-09T03:46:17;7.10;;;6.38;;
43337;SDS011;28933;52.492;13.434;2022-09-09T03:48:43;8.05;;;6.00;;
43337;SDS011;28933;52.492;13.434;2022-09-09T03:51:09;7.82;;;6.00;;
43337;SDS011;28933;52.492;13.434;2022-09-09T03:53:35;6.32;;;5.13;;
43337;SDS011;28933;52.492;13.434;2022-09-09T03:56:01;6.00;;;5.30;;
43337;SDS011;28933;52.492;13.434;2022-09-09T03:58:28;6.80;;;5.63;;
43337;SDS011;28933;52.492;13.434;2022-09-09T04:00:54;6.40;;;5.38;;
43337;SDS011;28933;52.492;13.434;2022-09-09T04:03:24;6.72;;;5.40;;
43337;SDS011;28933;52.492;13.434;2022-09-09T04:05:51;6.78;;;5.70;;
43337;SDS011;28933;52.492;13.434;2022-09-09T04:08:17;6.53;;;4.93;;
43337;SDS011;28933;52.492;13.434;2022-09-09T04:10:44;7.63;;;6.22;;
43337;SDS011;28933;52.492;13.434;2022-09-09T04:13:11;7.88;;;5.45;;
43337;SDS011;28933;52.492;13.434;2022-09-09T04:15:39;6.03;;;5.13;;
43337;SDS011;28933;52.492;13.434;2022-09-09T04:18:04;7.53;;;4.88;;
43337;SDS011;28933;52.492;13.434;2022-09-09T04:20:31;6.88;;;4.88;;
43337;SDS011;28933;52.492;13.434;2022-09-09T04:22:56;6.18;;;4.57;;
43337;SDS011;28933;52.492;13.434;2022-09-09T04:25:22;6.90;;;5.68;;
43337;SDS011;28933;52.492;13.434;2022-09-09T04:27:47;8.25;;;5.45;;
43337;SDS011;28933;52.492;13.434;2022-09-09T04:30:18;8.05;;;5.03;;
43337;SDS011;28933;52.492;13.434;2022-09-09T04:32:43;6.85;;;5.32;;
43337;SDS011;28933;52.492;13.434;2022-09-09T04:35:09;6.88;;;5.00;;
43337;SDS011;28933;52.492;13.434;2022-09-09T04:37:34;7.05;;;4.53;;
43337;SDS011;28933;52.492;13.434;2022-09-09T04:40:00;8.05;;;4.68;;
43337;SDS011;28933;52.492;13.434;2022-09-09T04:42:27;6.55;;;5.32;;
43337;SDS011;28933;52.492;13.434;2022-09-09T04:44:53;7.30;;;5.78;;
43337;SDS011;28933;52.492;13.434;2022-09-09T04:47:19;7.32;;;5.97;;
43337;SDS011;28933;52.492;13.434;2022-09-09T04:49:44;6.07;;;4.50;;
43337;SDS011;28933;52.492;13.434;2022-09-09T04:52:10;5.93;;;5.05;;
43337;SDS011;28933;52.492;13.434;2022-09-09T04:54:36;9.43;;;5.45;;
43337;SDS011;28933;52.492;13.434;2022-09-09T04:57:02;6.75;;;4.70;;
43337;SDS011;28933;52.492;13.434;2022-09-09T04:59:27;5.72;;;4.70;;
43337;SDS011;28933;52.492;13.434;2022-09-09T05:01:53;6.47;;;4.55;;
43337;SDS011;28933;52.492;13.434;2022-09-09T05:04:20;8.60;;;4.70;;
43337;SDS011;28933;52.492;13.434;2022-09-09T05:06:46;8.07;;;4.75;;
43337;SDS011;28933;52.492;13.434;2022-09-09T05:09:11;6.07;;;4.93;;
43337;SDS011;28933;52.492;13.434;2022-09-09T05:11:37;7.60;;;4.53;;
43337;SDS011;28933;52.492;13.434;2022-09-09T05:14:03;5.85;;;5.10;;
43337;SDS011;28933;52.492;13.434;2022-09-09T05:16:29;6.63;;;4.28;;
43337;SDS011;28933;52.492;13.434;2022-09-09T05:18:55;7.90;;;4.68;;
43337;SDS011;28933;52.492;13.434;2022-09-09T05:21:22;6.18;;;4.57;;
43337;SDS011;28933;52.492;13.434;2022-09-09T05:23:50;6.80;;;5.45;;
43337;SDS011;28933;52.492;13.434;2022-09-09T05:26:16;6.88;;;4.90;;
43337;SDS011;28933;52.492;13.434;2022-09-09T05:28:43;7.10;;;4.45;;
43337;SDS011;28933;52.492;13.434;2022-09-09T05:31:10;5.60;;;4.45;;
43337;SDS011;28933;52.492;13.434;2022-09-09T05:33:37;7.28;;;4.75;;
43337;SDS011;28933;52.492;13.434;2022-09-09T05:36:06;6.68;;;4.63;;
43337;SDS011;28933;52.492;13.434;2022-09-09T05:38:33;5.43;;;4.22;;
43337;SDS011;28933;52.492;13.434;2022-09-09T05:41:00;5.55;;;4.25;;
43337;SDS011;28933;52.492;13.434;2022-09-09T05:43:27;5.40;;;4.20;;
43337;SDS011;28933;52.492;13.434;2022-09-09T05:46:01;5.43;;;4.68;;
43337;SDS011;28933;52.492;13.434;2022-09-09T05:48:34;7.28;;;5.20;;
43337;SDS011;28933;52.492;13.434;2022-09-09T05:51:02;6.78;;;4.35;;
43337;SDS011;28933;52.492;13.434;2022-09-09T05:53:29;6.55;;;4.60;;
43337;SDS011;28933;52.492;13.434;2022-09-09T05:56:06;4.93;;;4.30;;
43337;SDS011;28933;52.492;13.434;2022-09-09T05:58:37;5.93;;;4.20;;
43337;SDS011;28933;52.492;13.434;2022-09-09T06:01:04;4.80;;;3.97;;
43337;SDS011;28933;52.492;13.434;2022-09-09T06:03:35;5.50;;;4.10;;
43337;SDS011;28933;52.492;13.434;2022-09-09T06:06:03;5.38;;;3.97;;
43337;SDS011;28933;52.492;13.434;2022-09-09T06:08:33;5.10;;;4.47;;
43337;SDS011;28933;52.492;13.434;2022-09-09T06:11:09;6.43;;;4.32;;
43337;SDS011;28933;52.492;13.434;2022-09-09T06:13:36;6.03;;;3.95;;
43337;SDS011;28933;52.492;13.434;2022-09-09T06:16:04;6.88;;;4.07;;
43337;SDS011;28933;52.492;13.434;2022-09-09T06:18:34;4.47;;;3.40;;
43337;SDS011;28933;52.492;13.434;2022-09-09T06:21:01;6.90;;;3.75;;
43337;SDS011;28933;52.492;13.434;2022-09-09T06:23:29;5.68;;;4.25;;
43337;SDS011;28933;52.492;13.434;2022-09-09T06:26:29;6.47;;;3.88;;
43337;SDS011;28933;52.492;13.434;2022-09-09T06:28:49;6.32;;;3.70;;
43337;SDS011;28933;52.492;13.434;2022-09-09T06:31:18;9.80;;;3.95;;
43337;SDS011;28933;52.492;13.434;2022-09-09T06:33:51;10.20;;;4.78;;
43337;SDS011;28933;52.492;13.434;2022-09-09T06:36:24;7.30;;;4.70;;
43337;SDS011;28933;52.492;13.434;2022-09-09T06:38:51;8.55;;;3.88;;
43337;SDS011;28933;52.492;13.434;2022-09-09T06:41:17;4.55;;;3.30;;
43337;SDS011;28933;52.492;13.434;2022-09-09T06:43:45;7.68;;;3.25;;
43337;SDS011;28933;52.492;13.434;2022-09-09T06:46:18;5.72;;;3.28;;
43337;SDS011;28933;52.492;13.434;2022-09-09T06:48:44;4.40;;;3.08;;
43337;SDS011;28933;52.492;13.434;2022-09-09T06:53:41;4.70;;;2.83;;
43337;SDS011;28933;52.492;13.434;2022-09-09T06:58:40;5.15;;;2.90;;
43337;SDS011;28933;52.492;13.434;2022-09-09T07:01:10;7.28;;;4.22;;
43337;SDS011;28933;52.492;13.434;2022-09-09T07:03:37;6.40;;;3.65;;
43337;SDS011;28933;52.492;13.434;2022-09-09T07:06:07;7.70;;;3.30;;
43337;SDS011;28933;52.492;13.434;2022-09-09T07:08:39;4.78;;;2.90;;
43337;SDS011;28933;52.492;13.434;2022-09-09T07:11:05;5.40;;;2.78;;
43337;SDS011;28933;52.492;13.434;2022-09-09T07:13:32;5.88;;;3.22;;
43337;SDS011;28933;52.492;13.434;2022-09-09T07:16:05;6.75;;;2.97;;
43337;SDS011;28933;52.492;13.434;2022-09-09T07:18:39;5.93;;;3.30;;
43337;SDS011;28933;52.492;13.434;2022-09-09T07:21:06;7.80;;;3.10;;
43337;SDS011;28933;52.492;13.434;2022-09-09T07:23:31;8.20;;;3.42;;
43337;SDS011;28933;52.492;13.434;2022-09-09T07:25:57;4.43;;;2.75;;
43337;SDS011;28933;52.492;13.434;2022-09-09T07:28:23;5.22;;;2.95;;
43337;SDS011;28933;52.492;13.434;2022-09-09T07:30:58;4.45;;;3.00;;
43337;SDS011;28933;52.492;13.434;2022-09-09T07:33:27;3.97;;;2.70;;
43337;SDS011;28933;52.492;13.434;2022-09-09T07:36:01;4.88;;;2.88;;
43337;SDS011;28933;52.492;13.434;2022-09-09T07:38:28;6.03;;;2.85;;
43337;SDS011;28933;52.492;13.434;2022-09-09T07:41:02;5.60;;;3.30;;
43337;SDS011;28933;52.492;13.434;2022-09-09T07:43:30;9.45;;;3.28;;
43337;SDS011;28933;52.492;13.434;2022-09-09T07:45:59;5.68;;;2.97;;
43337;SDS011;28933;52.492;13.434;2022-09-09T07:48:28;7.57;;;3.33;;
43337;SDS011;28933;52.492;13.434;2022-09-09T07:51:14;7.25;;;2.72;;
43337;SDS011;28933;52.492;13.434;2022-09-09T07:53:44;5.68;;;3.08;;
43337;SDS011;28933;52.492;13.434;2022-09-09T07:56:13;5.40;;;3.03;;
43337;SDS011;28933;52.492;13.434;2022-09-09T07:58:41;5.93;;;3.00;;
43337;SDS011;28933;52.492;13.434;2022-09-09T08:01:11;5.75;;;2.78;;
43337;SDS011;28933;52.492;13.434;2022-09-09T08:03:38;3.80;;;2.80;;
43337;SDS011;28933;52.492;13.434;2022-09-09T08:06:05;4.63;;;2.67;;
43337;SDS011;28933;52.492;13.434;2022-09-09T08:08:33;4.97;;;2.80;;
43337;SDS011;28933;52.492;13.434;2022-09-09T08:11:03;3.83;;;2.38;;
43337;SDS011;28933;52.492;13.434;2022-09-09T08:13:35;4.90;;;2.78;;
43337;SDS011;28933;52.492;13.434;2022-09-09T08:16:08;3.40;;;2.33;;
43337;SDS011;28933;52.492;13.434;2022-09-09T08:21:13;6.63;;;2.97;;
43337;SDS011;28933;52.492;13.434;2022-09-09T08:23:45;4.70;;;2.95;;
43337;SDS011;28933;52.492;13.434;2022-09-09T08:28:39;4.20;;;2.80;;
43337;SDS011;28933;52.492;13.434;2022-09-09T08:31:07;3.40;;;2.00;;
43337;SDS011;28933;52.492;13.434;2022-09-09T08:33:34;5.07;;;2.38;;
43337;SDS011;28933;52.492;13.434;2022-09-09T08:36:02;4.28;;;2.50;;
43337;SDS011;28933;52.492;13.434;2022-09-09T08:38:28;5.95;;;2.75;;
43337;SDS011;28933;52.492;13.434;2022-09-09T08:40:53;5.80;;;2.30;;
43337;SDS011;28933;52.492;13.434;2022-09-09T08:43:32;4.85;;;2.40;;
43337;SDS011;28933;52.492;13.434;2022-09-09T08:46:09;6.72;;;2.70;;
43337;SDS011;28933;52.492;13.434;2022-09-09T08:51:27;4.60;;;2.13;;
43337;SDS011;28933;52.492;13.434;2022-09-09T08:53:54;5.03;;;2.72;;
43337;SDS011;28933;52.492;13.434;2022-09-09T08:56:23;5.25;;;2.80;;
43337;SDS011;28933;52.492;13.434;2022-09-09T08:58:54;6.72;;;3.47;;
43337;SDS011;28933;52.492;13.434;2022-09-09T09:04:31;7.53;;;2.83;;
43337;SDS011;28933;52.492;13.434;2022-09-09T09:12:45;6.32;;;2.40;;
43337;SDS011;28933;52.492;13.434;2022-09-09T09:15:55;3.75;;;2.20;;
43337;SDS011;28933;52.492;13.434;2022-09-09T09:18:03;6.00;;;3.20;;
43337;SDS011;28933;52.492;13.434;2022-09-09T09:20:33;6.57;;;2.50;;
43337;SDS011;28933;52.492;13.434;2022-09-09T09:23:12;6.85;;;2.75;;
43337;SDS011;28933;52.492;13.434;2022-09-09T09:25:45;4.93;;;2.20;;
43337;SDS011;28933;52.492;13.434;2022-09-09T09:28:18;7.05;;;2.63;;
43337;SDS011;28933;52.492;13.434;2022-09-09T09:30:50;5.10;;;2.05;;
43337;SDS011;28933;52.492;13.434;2022-09-09T09:33:25;4.28;;;2.00;;
43337;SDS011;28933;52.492;13.434;2022-09-09T09:35:55;8.30;;;2.42;;
43337;SDS011;28933;52.492;13.434;2022-09-09T09:38:24;4.22;;;2.10;;
43337;SDS011;28933;52.492;13.434;2022-09-09T09:40:53;3.35;;;1.98;;
43337;SDS011;28933;52.492;13.434;2022-09-09T09:45:54;5.20;;;2.00;;
43337;SDS011;28933;52.492;13.434;2022-09-09T09:48:22;4.00;;;2.00;;
43337;SDS011;28933;52.492;13.434;2022-09-09T09:50:56;6.80;;;2.03;;
43337;SDS011;28933;52.492;13.434;2022-09-09T09:53:42;5.07;;;2.28;;
43337;SDS011;28933;52.492;13.434;2022-09-09T09:56:09;3.70;;;2.55;;
43337;SDS011;28933;52.492;13.434;2022-09-09T09:58:47;7.90;;;2.47;;
43337;SDS011;28933;52.492;13.434;2022-09-09T10:01:22;3.72;;;2.10;;
43337;SDS011;28933;52.492;13.434;2022-09-09T10:06:17;4.68;;;2.10;;
43337;SDS011;28933;52.492;13.434;2022-09-09T10:08:53;4.85;;;2.53;;
43337;SDS011;28933;52.492;13.434;2022-09-09T10:14:10;4.72;;;2.15;;
43337;SDS011;28933;52.492;13.434;2022-09-09T10:19:35;6.85;;;2.40;;
43337;SDS011;28933;52.492;13.434;2022-09-09T10:36:38;4.35;;;2.20;;
43337;SDS011;28933;52.492;13.434;2022-09-09T10:42:04;3.60;;;1.70;;
43337;SDS011;28933;52.492;13.434;2022-09-09T10:50:12;4.80;;;2.03;;
43337;SDS011;28933;52.492;13.434;2022-09-09T10:52:52;3.80;;;2.15;;
43337;SDS011;28933;52.492;13.434;2022-09-09T10:55:48;3.00;;;1.88;;
43337;SDS011;28933;52.492;13.434;2022-09-09T10:58:26;5.18;;;2.22;;
43337;SDS011;28933;52.492;13.434;2022-09-09T11:00:59;3.67;;;1.90;;
43337;SDS011;28933;52.492;13.434;2022-09-09T11:03:28;5.28;;;1.92;;
43337;SDS011;28933;52.492;13.434;2022-09-09T11:05:58;3.80;;;1.90;;
43337;SDS011;28933;52.492;13.434;2022-09-09T11:08:27;4.15;;;2.35;;
43337;SDS011;28933;52.492;13.434;2022-09-09T11:13:39;4.47;;;2.00;;
43337;SDS011;28933;52.492;13.434;2022-09-09T11:18:48;3.65;;;1.85;;
43337;SDS011;28933;52.492;13.434;2022-09-09T11:21:19;4.15;;;2.10;;
43337;SDS011;28933;52.492;13.434;2022-09-09T11:23:52;3.72;;;1.60;;
43337;SDS011;28933;52.492;13.434;2022-09-09T11:26:31;2.85;;;1.45;;
43337;SDS011;28933;52.492;13.434;2022-09-09T11:29:08;3.75;;;1.83;;
43337;SDS011;28933;52.492;13.434;2022-09-09T11:37:33;3.38;;;1.92;;
43337;SDS011;28933;52.492;13.434;2022-09-09T11:40:08;5.40;;;1.98;;
43337;SDS011;28933;52.492;13.434;2022-09-09T11:42:39;3.97;;;1.55;;
43337;SDS011;28933;52.492;13.434;2022-09-09T11:45:08;4.63;;;1.60;;
43337;SDS011;28933;52.492;13.434;2022-09-09T11:47:36;6.32;;;1.70;;
43337;SDS011;28933;52.492;13.434;2022-09-09T11:52:41;4.82;;;1.90;;
43337;SDS011;28933;52.492;13.434;2022-09-09T12:00:45;5.57;;;2.03;;
43337;SDS011;28933;52.492;13.434;2022-09-09T12:05:56;2.55;;;1.55;;
43337;SDS011;28933;52.492;13.434;2022-09-09T12:08:27;4.53;;;1.60;;
43337;SDS011;28933;52.492;13.434;2022-09-09T12:10:55;3.45;;;1.63;;
43337;SDS011;28933;52.492;13.434;2022-09-09T12:13:23;4.90;;;1.92;;
43337;SDS011;28933;52.492;13.434;2022-09-09T12:15:50;3.38;;;1.88;;
43337;SDS011;28933;52.492;13.434;2022-09-09T12:18:37;4.65;;;2.00;;
43337;SDS011;28933;52.492;13.434;2022-09-09T12:21:21;2.97;;;1.45;;
43337;SDS011;28933;52.492;13.434;2022-09-09T12:24:00;3.58;;;1.33;;
43337;SDS011;28933;52.492;13.434;2022-09-09T12:26:42;2.78;;;1.63;;
43337;SDS011;28933;52.492;13.434;2022-09-09T12:32:11;2.35;;;1.35;;
43337;SDS011;28933;52.492;13.434;2022-09-09T12:34:44;3.88;;;1.38;;
43337;SDS011;28933;52.492;13.434;2022-09-09T12:40:26;5.60;;;1.70;;
43337;SDS011;28933;52.492;13.434;2022-09-09T12:42:53;3.63;;;1.80;;
43337;SDS011;28933;52.492;13.434;2022-09-09T12:45:21;2.97;;;1.58;;
43337;SDS011;28933;52.492;13.434;2022-09-09T12:48:04;3.40;;;1.83;;
43337;SDS011;28933;52.492;13.434;2022-09-09T12:50:34;2.22;;;1.38;;
43337;SDS011;28933;52.492;13.434;2022-09-09T12:53:21;4.78;;;1.75;;
43337;SDS011;28933;52.492;13.434;2022-09-09T12:55:56;3.80;;;1.55;;
43337;SDS011;28933;52.492;13.434;2022-09-09T12:58:27;8.52;;;2.03;;
43337;SDS011;28933;52.492;13.434;2022-09-09T13:00:58;5.43;;;1.40;;
43337;SDS011;28933;52.492;13.434;2022-09-09T13:03:25;5.13;;;1.73;;
43337;SDS011;28933;52.492;13.434;2022-09-09T13:05:51;4.10;;;1.52;;
43337;SDS011;28933;52.492;13.434;2022-09-09T13:08:18;4.38;;;1.48;;
43337;SDS011;28933;52.492;13.434;2022-09-09T13:10:49;4.97;;;1.70;;
43337;SDS011;28933;52.492;13.434;2022-09-09T13:13:43;4.45;;;1.30;;
43337;SDS011;28933;52.492;13.434;2022-09-09T13:18:48;3.95;;;1.60;;
43337;SDS011;28933;52.492;13.434;2022-09-09T13:21:14;4.38;;;1.50;;
43337;SDS011;28933;52.492;13.434;2022-09-09T13:23:40;5.57;;;1.70;;
43337;SDS011;28933;52.492;13.434;2022-09-09T13:26:20;2.90;;;1.52;;
43337;SDS011;28933;52.492;13.434;2022-09-09T13:28:51;1.50;;;1.33;;
43337;SDS011;28933;52.492;13.434;2022-09-09T13:31:30;3.63;;;1.70;;
43337;SDS011;28933;52.492;13.434;2022-09-09T13:34:10;6.32;;;2.15;;
43337;SDS011;28933;52.492;13.434;2022-09-09T13:36:58;5.25;;;2.00;;
43337;SDS011;28933;52.492;13.434;2022-09-09T13:39:27;3.63;;;1.83;;
43337;SDS011;28933;52.492;13.434;2022-09-09T13:41:53;4.28;;;1.83;;
43337;SDS011;28933;52.492;13.434;2022-09-09T13:44:21;4.63;;;1.60;;
43337;SDS011;28933;52.492;13.434;2022-09-09T13:49:27;3.97;;;2.28;;
43337;SDS011;28933;52.492;13.434;2022-09-09T13:52:03;3.58;;;1.75;;
43337;SDS011;28933;52.492;13.434;2022-09-09T13:54:32;3.15;;;1.85;;
43337;SDS011;28933;52.492;13.434;2022-09-09T13:56:58;3.17;;;1.60;;
43337;SDS011;28933;52.492;13.434;2022-09-09T13:59:24;2.40;;;1.35;;
43337;SDS011;28933;52.492;13.434;2022-09-09T14:01:50;5.35;;;1.77;;
43337;SDS011;28933;52.492;13.434;2022-09-09T14:04:17;3.22;;;1.60;;
43337;SDS011;28933;52.492;13.434;2022-09-09T14:06:45;6.25;;;2.15;;
43337;SDS011;28933;52.492;13.434;2022-09-09T14:09:12;3.38;;;1.55;;
43337;SDS011;28933;52.492;13.434;2022-09-09T14:11:39;4.70;;;1.67;;
43337;SDS011;28933;52.492;13.434;2022-09-09T14:14:05;3.40;;;1.83;;
43337;SDS011;28933;52.492;13.434;2022-09-09T14:16:31;3.35;;;1.70;;
43337;SDS011;28933;52.492;13.434;2022-09-09T14:18:57;4.18;;;1.95;;
43337;SDS011;28933;52.492;13.434;2022-09-09T14:21:24;3.88;;;1.38;;
43337;SDS011;28933;52.492;13.434;2022-09-09T14:23:50;3.17;;;1.60;;
43337;SDS011;28933;52.492;13.434;2022-09-09T14:26:15;2.92;;;1.50;;
43337;SDS011;28933;52.492;13.434;2022-09-09T14:28:41;3.72;;;1.63;;
43337;SDS011;28933;52.492;13.434;2022-09-09T14:31:06;2.80;;;1.40;;
43337;SDS011;28933;52.492;13.434;2022-09-09T14:33:32;4.30;;;1.60;;
43337;SDS011;28933;52.492;13.434;2022-09-09T14:35:59;4.05;;;1.40;;
43337;SDS011;28933;52.492;13.434;2022-09-09T14:38:29;4.13;;;1.35;;
43337;SDS011;28933;52.492;13.434;2022-09-09T14:40:58;5.05;;;1.85;;
43337;SDS011;28933;52.492;13.434;2022-09-09T14:43:24;4.00;;;1.73;;
43337;SDS011;28933;52.492;13.434;2022-09-09T14:45:51;2.28;;;1.25;;
43337;SDS011;28933;52.492;13.434;2022-09-09T14:48:17;4.03;;;1.30;;
43337;SDS011;28933;52.492;13.434;2022-09-09T14:50:43;3.00;;;1.77;;
43337;SDS011;28933;52.492;13.434;2022-09-09T14:53:08;4.25;;;2.10;;
43337;SDS011;28933;52.492;13.434;2022-09-09T14:55:35;4.93;;;1.85;;
43337;SDS011;28933;52.492;13.434;2022-09-09T14:58:01;5.68;;;1.77;;
43337;SDS011;28933;52.492;13.434;2022-09-09T15:00:27;3.53;;;1.75;;
43337;SDS011;28933;52.492;13.434;2022-09-09T15:02:53;6.78;;;1.75;;
43337;SDS011;28933;52.492;13.434;2022-09-09T15:05:20;4.68;;;2.20;;
43337;SDS011;28933;52.492;13.434;2022-09-09T15:07:46;6.70;;;1.98;;
43337;SDS011;28933;52.492;13.434;2022-09-09T15:10:13;4.63;;;1.75;;
43337;SDS011;28933;52.492;13.434;2022-09-09T15:12:39;4.57;;;1.75;;
43337;SDS011;28933;52.492;13.434;2022-09-09T15:15:06;3.40;;;1.60;;
43337;SDS011;28933;52.492;13.434;2022-09-09T15:17:33;4.22;;;2.03;;
43337;SDS011;28933;52.492;13.434;2022-09-09T15:19:58;2.60;;;1.52;;
43337;SDS011;28933;52.492;13.434;2022-09-09T15:22:24;6.10;;;2.17;;
43337;SDS011;28933;52.492;13.434;2022-09-09T15:24:50;9.55;;;2.22;;
43337;SDS011;28933;52.492;13.434;2022-09-09T15:27:15;3.88;;;2.08;;
43337;SDS011;28933;52.492;13.434;2022-09-09T15:29:41;3.75;;;2.08;;
43337;SDS011;28933;52.492;13.434;2022-09-09T15:32:09;6.70;;;1.85;;
43337;SDS011;28933;52.492;13.434;2022-09-09T15:34:34;4.47;;;1.40;;
43337;SDS011;28933;52.492;13.434;2022-09-09T15:37:00;2.95;;;1.95;;
43337;SDS011;28933;52.492;13.434;2022-09-09T15:39:25;3.13;;;1.75;;
43337;SDS011;28933;52.492;13.434;2022-09-09T15:41:51;4.25;;;1.20;;
43337;SDS011;28933;52.492;13.434;2022-09-09T15:44:17;2.63;;;1.30;;
43337;SDS011;28933;52.492;13.434;2022-09-09T15:46:50;7.05;;;1.63;;
43337;SDS011;28933;52.492;13.434;2022-09-09T15:51:50;4.10;;;1.88;;
43337;SDS011;28933;52.492;13.434;2022-09-09T15:54:24;3.72;;;1.67;;
43337;SDS011;28933;52.492;13.434;2022-09-09T15:56:52;2.50;;;1.38;;
43337;SDS011;28933;52.492;13.434;2022-09-09T15:59:23;2.53;;;1.30;;
43337;SDS011;28933;52.492;13.434;2022-09-09T16:01:49;3.30;;;1.90;;
43337;SDS011;28933;52.492;13.434;2022-09-09T16:04:18;4.25;;;2.50;;
43337;SDS011;28933;52.492;13.434;2022-09-09T16:06:50;12.02;;;4.47;;
43337;SDS011;28933;52.492;13.434;2022-09-09T16:09:20;5.65;;;2.80;;
43337;SDS011;28933;52.492;13.434;2022-09-09T16:11:47;12.05;;;6.22;;
43337;SDS011;28933;52.492;13.434;2022-09-09T16:14:13;4.60;;;2.28;;
43337;SDS011;28933;52.492;13.434;2022-09-09T16:16:40;7.95;;;3.65;;
43337;SDS011;28933;52.492;13.434;2022-09-09T16:19:07;8.35;;;3.47;;
43337;SDS011;28933;52.492;13.434;2022-09-09T16:21:39;47.42;;;23.65;;
43337;SDS011;28933;52.492;13.434;2022-09-09T16:24:10;9.00;;;4.28;;
43337;SDS011;28933;52.492;13.434;2022-09-09T16:26:37;8.02;;;3.30;;
43337;SDS011;28933;52.492;13.434;2022-09-09T16:29:05;20.55;;;10.43;;
43337;SDS011;28933;52.492;13.434;2022-09-09T16:31:31;12.63;;;7.32;;
43337;SDS011;28933;52.492;13.434;2022-09-09T16:33:57;5.85;;;3.20;;
43337;SDS011;28933;52.492;13.434;2022-09-09T16:36:26;7.57;;;4.40;;
43337;SDS011;28933;52.492;13.434;2022-09-09T16:38:55;10.15;;;5.38;;
43337;SDS011;28933;52.492;13.434;2022-09-09T16:41:27;5.75;;;3.25;;
43337;SDS011;28933;52.492;13.434;2022-09-09T16:43:57;6.35;;;2.90;;
43337;SDS011;28933;52.492;13.434;2022-09-09T16:46:24;7.45;;;4.32;;
43337;SDS011;28933;52.492;13.434;2022-09-09T16:48:52;9.77;;;4.18;;
43337;SDS011;28933;52.492;13.434;2022-09-09T16:51:24;4.78;;;2.40;;
43337;SDS011;28933;52.492;13.434;2022-09-09T16:53:54;2.88;;;1.45;;
43337;SDS011;28933;52.492;13.434;2022-09-09T16:56:23;14.50;;;6.25;;
43337;SDS011;28933;52.492;13.434;2022-09-09T16:58:57;5.15;;;2.50;;
43337;SDS011;28933;52.492;13.434;2022-09-09T17:01:24;4.18;;;2.03;;